createdAt,value
2019-06-08T00:04:09.689Z,15.60
2019-06-08T00:09:16.757Z,15.60
2019-06-08T00:14:23.441Z,15.60
2019-06-08T00:19:29.680Z,15.70
2019-06-08T00:24:35.773Z,15.70
2019-06-08T00:29:41.998Z,15.70
2019-06-08T00:34:48.211Z,15.70
2019-06-08T00:39:54.360Z,15.70
2019-06-08T00:45:00.540Z,15.80
2019-06-08T00:50:07.162Z,15.80
2019-06-08T00:55:14.362Z,15.80
2019-06-08T01:00:20.608Z,15.80
2019-06-08T01:05:26.778Z,15.70
2019-06-08T01:10:32.865Z,15.80
2019-06-08T01:15:38.994Z,15.70
2019-06-08T01:20:45.252Z,15.70
2019-06-08T01:25:51.398Z,15.60
2019-06-08T01:30:57.696Z,15.70
2019-06-08T01:36:03.981Z,15.70
2019-06-08T01:41:10.206Z,15.70
2019-06-08T01:46:17.356Z,15.70
2019-06-08T01:51:24.547Z,15.60
2019-06-08T01:56:31.246Z,15.50
2019-06-08T02:01:38.812Z,15.50
2019-06-08T02:06:44.870Z,15.50
2019-06-08T02:11:51.024Z,15.50
2019-06-08T02:16:57.139Z,15.40
2019-06-08T02:22:03.324Z,15.40
2019-06-08T02:27:09.363Z,15.30
2019-06-08T02:32:15.594Z,15.30
2019-06-08T02:37:21.810Z,15.30
2019-06-08T02:42:28.500Z,15.20
2019-06-08T02:47:36.731Z,15.20
2019-06-08T02:52:44.732Z,15.20
2019-06-08T02:57:52.053Z,15.10
2019-06-08T03:02:58.945Z,15.10
2019-06-08T03:08:06.737Z,15.10
2019-06-08T03:13:12.829Z,15.10
2019-06-08T03:18:18.905Z,15.10
2019-06-08T03:23:25.150Z,15.10
2019-06-08T03:28:32.629Z,15.10
2019-06-08T03:33:49.103Z,15.10
2019-06-08T03:38:47.202Z,15.00
2019-06-08T03:43:53.549Z,15.00
2019-06-08T03:48:59.730Z,15.00
2019-06-08T03:54:05.856Z,15.00
2019-06-08T03:59:12.035Z,14.90
2019-06-08T04:04:18.286Z,14.90
2019-06-08T04:09:24.856Z,14.90
2019-06-08T04:14:31.531Z,14.90
2019-06-08T04:19:38.138Z,14.80
2019-06-08T04:24:46.163Z,14.80
2019-06-08T04:29:52.504Z,14.90
2019-06-08T04:34:58.743Z,14.70
2019-06-08T04:40:06.699Z,14.70
2019-06-08T04:45:13.045Z,14.70
2019-06-08T04:50:23.407Z,14.70
2019-06-08T04:55:27.095Z,14.60
2019-06-08T05:00:33.308Z,14.60
2019-06-08T05:05:41.015Z,14.60
2019-06-08T05:10:47.542Z,14.50
2019-06-08T05:15:54.141Z,14.50
2019-06-08T05:21:00.399Z,14.50
2019-06-08T05:26:06.734Z,14.50
2019-06-08T05:31:12.940Z,14.50
2019-06-08T05:36:19.468Z,14.40
2019-06-08T05:41:25.800Z,14.50
2019-06-08T05:46:32.308Z,14.50
2019-06-08T05:51:39.763Z,14.40
2019-06-08T05:56:46.059Z,14.30
2019-06-08T06:01:52.418Z,14.10
2019-06-08T06:06:58.632Z,13.80
2019-06-08T06:12:05.743Z,13.60
2019-06-08T06:17:12.040Z,13.50
2019-06-08T06:22:18.282Z,13.50
2019-06-08T06:27:24.597Z,13.60
2019-06-08T06:32:30.974Z,13.60
2019-06-08T06:37:37.398Z,13.60
2019-06-08T06:42:43.898Z,13.70
2019-06-08T06:47:50.495Z,13.80
2019-06-08T06:52:59.953Z,13.70
2019-06-08T06:58:06.264Z,13.80
2019-06-08T07:03:12.520Z,13.80
2019-06-08T07:08:19.112Z,13.80
2019-06-08T07:13:25.477Z,13.80
2019-06-08T07:18:31.686Z,13.80
2019-06-08T07:23:38.010Z,13.80
2019-06-08T07:28:44.186Z,13.90
2019-06-08T07:33:51.839Z,13.90
2019-06-08T07:38:59.582Z,14.00
2019-06-08T07:44:05.869Z,14.20
2019-06-08T07:49:12.049Z,14.30
2019-06-08T07:54:18.392Z,14.50
2019-06-08T07:59:24.599Z,14.50
2019-06-08T08:04:30.798Z,14.50
2019-06-08T08:09:38.564Z,14.50
2019-06-08T08:14:44.759Z,14.60
2019-06-08T08:19:51.146Z,14.70
2019-06-08T08:25:02.712Z,14.90
2019-06-08T08:30:08.156Z,15.10
2019-06-08T08:35:14.129Z,15.70
2019-06-08T08:40:20.418Z,16.00
2019-06-08T08:45:27.603Z,16.90
2019-06-08T08:50:33.933Z,16.60
2019-06-08T08:55:40.135Z,16.40
2019-06-08T09:00:48.769Z,16.00
2019-06-08T09:05:55.704Z,15.90
2019-06-08T09:11:03.688Z,15.80
2019-06-08T09:16:09.941Z,15.80
2019-06-08T09:21:18.396Z,15.80
2019-06-08T09:26:24.045Z,15.80
2019-06-08T09:31:30.890Z,15.70
2019-06-08T09:36:37.656Z,15.60
2019-06-08T09:41:47.744Z,15.70
2019-06-08T09:46:54.127Z,15.80
2019-06-08T09:52:03.244Z,15.60
2019-06-08T09:57:09.670Z,15.70
2019-06-08T10:02:18.512Z,15.70
2019-06-08T10:07:31.092Z,15.60
2019-06-08T10:12:37.792Z,15.60
2019-06-08T10:17:43.233Z,15.60
2019-06-08T10:22:50.522Z,15.90
2019-06-08T10:27:59.648Z,15.90
2019-06-08T10:33:07.131Z,15.80
2019-06-08T10:38:12.724Z,15.80
2019-06-08T10:43:20.050Z,15.90
2019-06-08T10:48:27.623Z,15.90
2019-06-08T10:53:46.428Z,15.90
2019-06-08T10:58:43.063Z,15.90
2019-06-08T11:03:49.332Z,15.90
2019-06-08T11:08:55.602Z,15.90
2019-06-08T11:14:05.007Z,15.70
2019-06-08T11:19:13.489Z,15.80
2019-06-08T11:24:24.619Z,16.00
2019-06-08T11:29:27.539Z,16.10
2019-06-08T11:34:37.501Z,16.30
2019-06-08T11:39:42.847Z,16.60
2019-06-08T11:44:51.143Z,16.50
2019-06-08T11:49:57.676Z,16.50
2019-06-08T11:55:05.420Z,16.60
2019-06-08T12:00:27.277Z,16.90
2019-06-08T12:05:23.997Z,17.00
2019-06-08T12:10:30.394Z,17.00
2019-06-08T12:15:38.464Z,17.00
2019-06-08T12:20:44.505Z,17.20
2019-06-08T12:25:51.098Z,17.20
2019-06-08T12:31:00.718Z,17.30
2019-06-08T12:36:08.457Z,17.20
2019-06-08T12:41:14.448Z,17.10
2019-06-08T12:46:21.971Z,17.70
2019-06-08T12:51:29.297Z,18.00
2019-06-08T12:56:37.662Z,18.30
2019-06-08T13:01:43.579Z,18.50
2019-06-08T13:06:49.809Z,18.80
2019-06-08T13:11:59.313Z,19.50
2019-06-08T13:17:05.241Z,19.60
2019-06-08T13:22:11.453Z,19.70
2019-06-08T13:27:21.514Z,19.80
2019-06-08T13:32:25.658Z,20.20
2019-06-08T13:37:31.831Z,20.40
2019-06-08T13:42:38.359Z,20.30
2019-06-08T13:47:44.661Z,20.00
2019-06-08T13:52:50.943Z,19.60
2019-06-08T13:57:58.092Z,19.70
2019-06-08T14:03:08.512Z,19.20
2019-06-08T14:08:14.879Z,19.70
2019-06-08T14:13:27.106Z,19.00
2019-06-08T14:18:33.901Z,17.50
2019-06-08T14:23:38.707Z,17.50
2019-06-08T14:28:44.899Z,16.70
2019-06-08T14:33:51.270Z,17.40
2019-06-08T14:39:02.010Z,18.00
2019-06-08T14:44:08.152Z,19.30
2019-06-08T14:49:14.018Z,19.30
2019-06-08T14:54:26.283Z,19.00
2019-06-08T14:59:30.450Z,18.40
2019-06-08T15:04:39.881Z,16.80
2019-06-08T15:09:45.131Z,15.80
2019-06-08T15:14:51.343Z,15.70
2019-06-08T15:19:58.629Z,15.30
2019-06-08T15:25:05.118Z,15.60
2019-06-08T15:30:13.672Z,15.80
2019-06-08T15:35:20.997Z,15.80
2019-06-08T15:40:27.803Z,15.50
2019-06-08T15:45:34.264Z,15.30
2019-06-08T15:50:40.728Z,14.40
2019-06-08T15:55:48.706Z,13.80
2019-06-08T16:00:55.606Z,14.70
2019-06-08T16:06:02.182Z,15.00
2019-06-08T16:11:08.405Z,14.90
2019-06-08T16:16:14.654Z,15.60
2019-06-08T16:21:20.936Z,15.80
2019-06-08T16:26:27.775Z,15.60
2019-06-08T16:31:35.369Z,15.80
2019-06-08T16:36:41.794Z,16.00
2019-06-08T16:41:47.957Z,16.40
2019-06-08T16:46:54.328Z,16.50
2019-06-08T16:52:00.623Z,16.90
2019-06-08T16:57:10.827Z,16.90
2019-06-08T17:02:16.988Z,16.90
2019-06-08T17:07:22.547Z,16.60
2019-06-08T17:12:28.848Z,16.90
2019-06-08T17:17:36.377Z,17.10
2019-06-08T17:22:43.072Z,17.50
2019-06-08T17:27:49.254Z,17.60
2019-06-08T17:32:55.575Z,17.40
2019-06-08T17:38:01.936Z,17.20
2019-06-08T17:43:10.571Z,17.00
2019-06-08T17:48:16.907Z,17.10
2019-06-08T17:53:23.246Z,17.20
2019-06-08T17:58:29.565Z,17.00
2019-06-08T18:03:38.058Z,17.00
2019-06-08T18:08:45.096Z,16.80
2019-06-08T18:13:52.189Z,16.80
2019-06-08T18:18:58.541Z,16.50
2019-06-08T18:24:07.684Z,16.40
2019-06-08T18:29:13.744Z,16.50
2019-06-08T18:34:20.148Z,16.50
2019-06-08T18:39:28.203Z,16.40
2019-06-08T18:44:34.971Z,16.30
2019-06-08T18:49:42.757Z,16.20
2019-06-08T18:54:49.931Z,16.00
2019-06-08T18:59:57.437Z,15.80
2019-06-08T19:05:03.924Z,15.60
2019-06-08T19:10:10.349Z,15.60
2019-06-08T19:15:19.742Z,15.50
2019-06-08T19:20:28.317Z,15.50
2019-06-08T19:25:34.318Z,15.40
2019-06-08T19:30:42.438Z,15.40
2019-06-08T19:35:53.458Z,15.30
2019-06-08T19:40:57.296Z,15.30
2019-06-08T19:46:07.204Z,15.20
2019-06-08T19:51:13.441Z,15.20
2019-06-08T19:56:21.444Z,15.10
2019-06-08T20:01:28.626Z,15.10
2019-06-08T20:06:37.617Z,15.00
2019-06-08T20:11:49.245Z,15.00
2019-06-08T20:16:53.695Z,14.90
2019-06-08T20:22:00.279Z,14.90
2019-06-08T20:27:07.706Z,14.80
2019-06-08T20:32:14.404Z,14.70
2019-06-08T20:37:20.612Z,14.50
2019-06-08T20:42:28.883Z,14.50
2019-06-08T20:47:36.730Z,14.50
2019-06-08T20:52:42.529Z,14.50
2019-06-08T20:57:49.784Z,14.40
2019-06-08T21:03:02.733Z,14.30
2019-06-08T21:08:08.155Z,14.20
2019-06-08T21:13:13.832Z,14.20
2019-06-08T21:18:20.096Z,14.10
2019-06-08T21:23:27.801Z,14.10
2019-06-08T21:28:34.303Z,14.10
2019-06-08T21:33:41.161Z,13.90
2019-06-08T21:38:50.277Z,13.90
2019-06-08T21:43:59.600Z,13.70
2019-06-08T21:49:04.397Z,13.70
2019-06-08T21:54:15.020Z,13.60
2019-06-08T21:59:21.376Z,13.60
2019-06-08T22:04:27.789Z,13.50
2019-06-08T22:09:34.066Z,13.40
2019-06-08T22:14:40.370Z,13.30
2019-06-08T22:19:47.449Z,13.30
2019-06-08T22:24:55.346Z,13.30
2019-06-08T22:30:10.696Z,13.20
2019-06-08T22:35:09.917Z,13.30
2019-06-08T22:40:17.564Z,13.10
2019-06-08T22:45:23.772Z,13.10
2019-06-08T22:50:30.005Z,13.10
2019-06-08T22:55:38.779Z,13.20
2019-06-08T23:00:52.676Z,13.10
2019-06-08T23:05:55.898Z,13.00
2019-06-08T23:11:03.713Z,13.00
2019-06-08T23:16:10.759Z,12.90
2019-06-08T23:21:18.052Z,12.90
2019-06-08T23:26:24.350Z,12.90
2019-06-08T23:31:30.560Z,12.80
2019-06-08T23:36:52.047Z,12.70
2019-06-08T23:41:48.129Z,12.70
2019-06-08T23:46:53.537Z,12.60
2019-06-08T23:52:02.130Z,12.60
2019-06-08T23:57:09.634Z,12.50
